createdAt,value
2019-05-05T00:00:39.088Z,4.60
2019-05-05T00:03:16.082Z,4.57
2019-05-05T00:05:47.298Z,3.93
2019-05-05T00:08:16.785Z,3.60
2019-05-05T00:11:05.074Z,6.07
2019-05-05T00:13:36.504Z,4.70
2019-05-05T00:16:25.549Z,3.67
2019-05-05T00:18:56.054Z,4.03
2019-05-05T00:21:25.646Z,3.60
2019-05-05T00:23:55.461Z,3.70
2019-05-05T00:26:25.038Z,4.10
2019-05-05T00:28:55.344Z,3.03
2019-05-05T00:31:24.880Z,4.10
2019-05-05T00:33:54.575Z,4.33
2019-05-05T00:36:24.772Z,4.23
2019-05-05T00:38:55.950Z,4.40
2019-05-05T00:41:27.050Z,5.53
2019-05-05T00:43:56.467Z,4.17
2019-05-05T00:46:44.673Z,4.43
2019-05-05T00:49:14.623Z,4.10
2019-05-05T00:51:44.425Z,4.80
2019-05-05T00:54:14.900Z,4.47
2019-05-05T00:56:45.152Z,4.37
2019-05-05T00:59:16.367Z,5.47
2019-05-05T01:01:49.927Z,4.93
2019-05-05T01:04:21.039Z,5.90
2019-05-05T01:06:50.714Z,4.90
2019-05-05T01:09:25.688Z,4.70
2019-05-05T01:11:55.991Z,4.63
2019-05-05T01:14:25.480Z,4.77
2019-05-05T01:16:54.927Z,4.80
2019-05-05T01:19:24.431Z,5.07
2019-05-05T01:21:54.506Z,4.83
2019-05-05T01:24:24.893Z,5.10
2019-05-05T01:26:55.131Z,5.50
2019-05-05T01:29:26.183Z,5.70
2019-05-05T01:31:57.536Z,5.80
2019-05-05T01:34:28.741Z,5.50
2019-05-05T01:37:01.248Z,6.27
2019-05-05T01:39:38.145Z,7.23
2019-05-05T01:42:09.456Z,5.97
2019-05-05T01:44:39.198Z,5.93
2019-05-05T01:47:09.978Z,5.57
2019-05-05T01:49:39.510Z,5.83
2019-05-05T01:52:09.036Z,5.90
2019-05-05T01:54:38.457Z,5.33
2019-05-05T01:57:08.375Z,6.40
2019-05-05T01:59:38.391Z,5.70
2019-05-05T02:02:07.954Z,7.07
2019-05-05T02:04:37.460Z,8.23
2019-05-05T02:07:06.972Z,7.93
2019-05-05T02:09:36.507Z,8.17
2019-05-05T02:12:06.395Z,9.30
2019-05-05T02:14:35.998Z,9.97
2019-05-05T02:17:05.599Z,9.50
2019-05-05T02:19:35.199Z,9.13
2019-05-05T02:22:07.784Z,9.57
2019-05-05T02:24:37.529Z,8.90
2019-05-05T02:27:07.146Z,9.03
2019-05-05T02:29:54.863Z,8.70
2019-05-05T02:32:38.122Z,8.30
2019-05-05T02:35:16.857Z,8.87
2019-05-05T02:37:47.138Z,8.27
2019-05-05T02:40:18.316Z,9.63
2019-05-05T02:42:48.866Z,7.90
2019-05-05T02:45:35.285Z,9.23
2019-05-05T02:48:06.505Z,8.37
2019-05-05T02:50:52.441Z,8.70
2019-05-05T02:53:14.304Z,8.27
2019-05-05T02:55:44.219Z,7.53
2019-05-05T02:58:14.809Z,8.03
2019-05-05T03:00:54.884Z,7.83
2019-05-05T03:03:24.972Z,8.50
2019-05-05T03:05:55.748Z,8.77
2019-05-05T03:08:26.294Z,7.87
2019-05-05T03:10:58.106Z,7.40
2019-05-05T03:13:33.638Z,7.97
2019-05-05T03:16:18.623Z,7.57
2019-05-05T03:18:48.796Z,7.37
2019-05-05T03:21:20.521Z,7.97
2019-05-05T03:23:50.488Z,8.27
2019-05-05T03:26:20.544Z,7.47
2019-05-05T03:28:52.075Z,8.17
2019-05-05T03:31:26.191Z,8.20
2019-05-05T03:33:55.142Z,9.20
2019-05-05T03:36:26.034Z,9.67
2019-05-05T03:38:56.228Z,8.40
2019-05-05T03:41:29.052Z,8.43
2019-05-05T03:44:18.987Z,8.27
2019-05-05T03:46:49.051Z,9.50
2019-05-05T03:49:19.151Z,9.57
2019-05-05T03:51:48.725Z,9.73
2019-05-05T03:54:19.303Z,8.37
2019-05-05T03:56:51.102Z,8.90
2019-05-05T03:59:20.691Z,8.97
2019-05-05T04:01:54.697Z,10.17
2019-05-05T04:04:35.320Z,9.37
2019-05-05T04:07:04.958Z,9.80
2019-05-05T04:09:34.735Z,9.57
2019-05-05T04:12:04.592Z,8.80
2019-05-05T04:14:34.853Z,8.80
2019-05-05T04:17:24.414Z,8.67
2019-05-05T04:19:57.879Z,9.40
2019-05-05T04:22:29.732Z,9.10
2019-05-05T04:24:59.139Z,8.83
2019-05-05T04:27:30.695Z,9.20
2019-05-05T04:30:00.117Z,9.37
2019-05-05T04:32:29.800Z,9.70
2019-05-05T04:34:59.210Z,9.50
2019-05-05T04:37:28.668Z,10.33
2019-05-05T04:39:58.070Z,9.23
2019-05-05T04:42:27.513Z,10.00
2019-05-05T04:44:56.921Z,9.33
2019-05-05T04:47:28.021Z,9.30
2019-05-05T04:49:59.142Z,8.67
2019-05-05T04:52:31.417Z,8.77
2019-05-05T04:55:00.829Z,8.87
2019-05-05T04:57:30.345Z,7.77
2019-05-05T04:59:59.760Z,7.87
2019-05-05T05:02:34.134Z,6.30
2019-05-05T05:05:06.493Z,5.87
2019-05-05T05:07:35.966Z,6.87
2019-05-05T05:10:08.594Z,7.10
2019-05-05T05:12:38.035Z,6.90
2019-05-05T05:15:07.619Z,6.60
2019-05-05T05:17:41.688Z,6.80
2019-05-05T05:20:14.025Z,7.10
2019-05-05T05:22:43.990Z,7.33
2019-05-05T05:25:13.784Z,7.63
2019-05-05T05:27:44.349Z,8.23
2019-05-05T05:30:14.299Z,6.80
2019-05-05T05:32:44.514Z,7.20
2019-05-05T05:35:14.369Z,7.17
2019-05-05T05:37:44.762Z,6.90
2019-05-05T05:40:19.349Z,6.90
2019-05-05T05:42:49.446Z,7.50
2019-05-05T05:45:20.539Z,7.47
2019-05-05T05:47:59.062Z,6.70
2019-05-05T05:50:35.875Z,7.80
2019-05-05T05:53:05.510Z,7.30
2019-05-05T05:55:34.990Z,7.17
2019-05-05T05:58:04.940Z,6.73
2019-05-05T06:00:34.578Z,7.03
2019-05-05T06:03:04.111Z,7.20
2019-05-05T06:05:34.518Z,6.63
2019-05-05T06:08:04.730Z,6.67
2019-05-05T06:10:34.435Z,6.63
2019-05-05T06:13:04.279Z,6.73
2019-05-05T06:15:35.070Z,6.40
2019-05-05T06:18:07.624Z,7.07
2019-05-05T06:20:37.026Z,7.10
2019-05-05T06:23:06.472Z,7.63
2019-05-05T06:25:38.121Z,7.63
2019-05-05T06:28:07.709Z,7.63
2019-05-05T06:30:37.118Z,6.53
2019-05-05T06:33:06.749Z,6.63
2019-05-05T06:35:36.271Z,6.30
2019-05-05T06:38:05.730Z,6.67
2019-05-05T06:40:48.943Z,6.47
2019-05-05T06:43:25.044Z,6.47
2019-05-05T06:45:58.623Z,6.30
2019-05-05T06:48:28.086Z,6.97
2019-05-05T06:50:57.557Z,6.00
2019-05-05T06:53:26.971Z,6.07
2019-05-05T06:55:56.420Z,5.33
2019-05-05T06:58:25.845Z,5.20
2019-05-05T07:00:55.301Z,5.17
2019-05-05T07:03:24.715Z,5.63
2019-05-05T07:05:54.162Z,5.73
2019-05-05T07:08:24.415Z,5.30
2019-05-05T07:10:54.886Z,5.80
2019-05-05T07:13:24.539Z,5.37
2019-05-05T07:15:54.360Z,5.10
2019-05-05T07:18:25.403Z,5.57
2019-05-05T07:20:56.382Z,5.90
2019-05-05T07:23:25.805Z,5.30
2019-05-05T07:25:55.363Z,5.37
2019-05-05T07:28:24.823Z,4.90
2019-05-05T07:30:54.811Z,5.67
2019-05-05T07:33:24.530Z,5.20
2019-05-05T07:36:06.145Z,5.50
2019-05-05T07:38:35.715Z,5.90
2019-05-05T07:41:05.294Z,7.37
2019-05-05T07:43:34.761Z,5.83
2019-05-05T07:46:04.597Z,6.17
2019-05-05T07:48:34.051Z,5.77
2019-05-05T07:51:05.182Z,5.80
2019-05-05T07:53:35.250Z,4.70
2019-05-05T07:56:07.490Z,5.17
2019-05-05T07:58:37.395Z,5.50
2019-05-05T08:01:06.828Z,5.20
2019-05-05T08:03:36.287Z,4.83
2019-05-05T08:06:08.706Z,5.33
2019-05-05T08:08:38.312Z,5.33
2019-05-05T08:11:07.768Z,5.20
2019-05-05T08:13:37.334Z,5.23
2019-05-05T08:16:26.483Z,5.53
2019-05-05T08:18:57.648Z,5.57
2019-05-05T08:21:27.099Z,5.33
2019-05-05T08:23:58.192Z,5.77
2019-05-05T08:26:29.288Z,5.43
2019-05-05T08:29:04.637Z,5.93
2019-05-05T08:31:48.065Z,5.77
2019-05-05T08:34:20.249Z,5.47
2019-05-05T08:36:49.684Z,5.43
2019-05-05T08:39:21.454Z,5.60
2019-05-05T08:41:50.378Z,6.03
2019-05-05T08:44:19.834Z,4.73
2019-05-05T08:46:49.294Z,5.40
2019-05-05T08:49:18.888Z,4.80
2019-05-05T08:51:48.395Z,5.10
2019-05-05T08:54:17.841Z,5.20
2019-05-05T08:56:47.277Z,5.30
2019-05-05T08:59:16.741Z,5.73
2019-05-05T09:01:46.155Z,7.17
2019-05-05T09:04:15.614Z,4.57
2019-05-05T09:06:45.090Z,5.13
2019-05-05T09:09:14.631Z,4.90
2019-05-05T09:11:44.094Z,6.27
2019-05-05T09:14:14.935Z,6.13
2019-05-05T09:16:44.977Z,6.23
2019-05-05T09:19:16.039Z,5.83
2019-05-05T09:21:45.506Z,6.60
2019-05-05T09:24:16.752Z,6.77
2019-05-05T09:26:49.237Z,6.10
2019-05-05T09:29:26.753Z,5.70
2019-05-05T09:31:56.237Z,6.10
2019-05-05T09:34:25.783Z,5.70
2019-05-05T09:36:55.425Z,5.83
2019-05-05T09:39:24.886Z,5.20
2019-05-05T09:41:54.343Z,6.10
2019-05-05T09:44:24.263Z,5.43
2019-05-05T09:46:55.425Z,6.10
2019-05-05T09:49:26.331Z,5.80
2019-05-05T09:51:56.005Z,5.50
2019-05-05T09:54:25.497Z,4.67
2019-05-05T09:56:57.820Z,4.30
2019-05-05T09:59:27.231Z,4.77
2019-05-05T10:01:56.706Z,4.63
2019-05-05T10:04:27.709Z,5.03
2019-05-05T10:06:57.261Z,4.97
2019-05-05T10:09:26.705Z,5.07
2019-05-05T10:11:56.182Z,5.90
2019-05-05T10:14:25.627Z,5.73
2019-05-05T10:16:55.140Z,5.40
2019-05-05T10:19:26.208Z,5.50
2019-05-05T10:21:57.202Z,5.83
2019-05-05T10:24:35.421Z,5.80
2019-05-05T10:27:05.118Z,5.57
2019-05-05T10:29:34.560Z,5.80
2019-05-05T10:32:04.718Z,5.60
2019-05-05T10:34:36.041Z,5.57
2019-05-05T10:37:05.662Z,5.90
2019-05-05T10:39:36.791Z,5.43
2019-05-05T10:42:06.382Z,5.67
2019-05-05T10:44:35.786Z,5.50
2019-05-05T10:47:05.331Z,5.70
2019-05-05T10:49:34.770Z,6.53
2019-05-05T10:52:04.342Z,6.07
2019-05-05T10:54:43.341Z,5.93
2019-05-05T10:57:06.504Z,5.43
2019-05-05T10:59:35.922Z,4.80
2019-05-05T11:02:05.603Z,4.90
2019-05-05T11:04:35.230Z,5.20
2019-05-05T11:07:04.739Z,4.70
2019-05-05T11:09:34.719Z,4.80
2019-05-05T11:12:04.326Z,6.30
2019-05-05T11:14:33.872Z,5.80
2019-05-05T11:17:04.307Z,5.00
2019-05-05T11:19:34.002Z,5.47
2019-05-05T11:22:04.939Z,5.60
2019-05-05T11:24:34.663Z,5.27
2019-05-05T11:27:04.576Z,5.30
2019-05-05T11:29:35.736Z,4.90
2019-05-05T11:32:06.898Z,5.57
2019-05-05T11:34:36.307Z,5.23
2019-05-05T11:37:08.237Z,5.00
2019-05-05T11:39:37.723Z,5.87
2019-05-05T11:42:07.352Z,5.67
2019-05-05T11:44:36.780Z,6.13
2019-05-05T11:47:06.259Z,7.80
2019-05-05T11:49:35.643Z,5.03
2019-05-05T11:52:05.196Z,6.13
2019-05-05T11:54:34.649Z,5.77
2019-05-05T11:57:04.521Z,4.83
2019-05-05T11:59:34.079Z,5.57
2019-05-05T12:02:05.217Z,4.70
2019-05-05T12:04:34.627Z,5.37
2019-05-05T12:07:05.730Z,4.40
2019-05-05T12:09:36.851Z,4.90
2019-05-05T12:12:07.870Z,5.60
2019-05-05T12:14:37.422Z,4.87
2019-05-05T12:17:06.948Z,4.60
2019-05-05T12:19:36.378Z,5.13
2019-05-05T12:22:05.868Z,4.37
2019-05-05T12:24:38.470Z,4.70
2019-05-05T12:27:15.766Z,5.10
2019-05-05T12:29:47.781Z,4.20
2019-05-05T12:32:17.231Z,4.83
2019-05-05T12:34:46.671Z,4.67
2019-05-05T12:37:16.110Z,4.20
2019-05-05T12:39:45.638Z,4.00
2019-05-05T12:42:15.097Z,4.00
2019-05-05T12:44:46.209Z,4.00
2019-05-05T12:47:18.878Z,5.13
2019-05-05T12:49:48.331Z,4.67
2019-05-05T12:52:17.812Z,4.60
2019-05-05T12:54:47.386Z,4.37
2019-05-05T12:57:17.030Z,3.87
2019-05-05T12:59:46.537Z,3.77
2019-05-05T13:02:16.019Z,4.50
2019-05-05T13:04:45.608Z,3.90
2019-05-05T13:07:15.025Z,4.47
2019-05-05T13:09:44.465Z,5.57
2019-05-05T13:12:14.980Z,4.00
2019-05-05T13:14:44.636Z,3.13
2019-05-05T13:17:14.352Z,4.40
2019-05-05T13:19:48.445Z,4.03
2019-05-05T13:22:34.874Z,3.60
2019-05-05T13:25:24.426Z,3.03
2019-05-05T13:27:57.304Z,3.27
2019-05-05T13:30:26.631Z,3.10
2019-05-05T13:32:56.050Z,3.10
2019-05-05T13:35:25.640Z,3.47
2019-05-05T13:37:55.131Z,3.27
2019-05-05T13:40:24.642Z,3.50
2019-05-05T13:42:54.691Z,3.33
2019-05-05T13:45:26.094Z,3.30
2019-05-05T13:47:55.643Z,3.00
2019-05-05T13:50:29.335Z,3.10
2019-05-05T13:52:58.812Z,3.03
2019-05-05T13:55:28.269Z,3.17
2019-05-05T13:57:57.741Z,2.80
2019-05-05T14:00:28.135Z,2.93
2019-05-05T14:02:57.549Z,3.30
2019-05-05T14:05:26.990Z,3.20
2019-05-05T14:07:56.403Z,3.00
2019-05-05T14:10:25.858Z,3.40
2019-05-05T14:12:55.272Z,2.93
2019-05-05T14:15:24.772Z,3.77
2019-05-05T14:17:54.415Z,2.90
2019-05-05T14:20:24.307Z,3.07
2019-05-05T14:22:54.356Z,3.20
2019-05-05T14:25:26.440Z,3.60
2019-05-05T14:27:56.037Z,3.87
2019-05-05T14:30:46.351Z,3.60
2019-05-05T14:33:20.353Z,3.63
2019-05-05T14:36:08.364Z,3.27
2019-05-05T14:38:44.334Z,3.00
2019-05-05T14:41:13.720Z,3.33
2019-05-05T14:43:43.844Z,3.30
2019-05-05T14:46:14.490Z,2.60
2019-05-05T14:48:44.215Z,3.10
2019-05-05T14:51:14.547Z,3.00
2019-05-05T14:53:45.698Z,2.80
2019-05-05T14:56:15.246Z,3.00
2019-05-05T14:58:44.767Z,3.03
2019-05-05T15:01:15.186Z,3.57
2019-05-05T15:03:44.652Z,4.20
2019-05-05T15:06:17.924Z,3.93
2019-05-05T15:08:54.633Z,4.37
2019-05-05T15:11:28.810Z,4.47
2019-05-05T15:13:58.256Z,4.37
2019-05-05T15:16:29.328Z,4.43
2019-05-05T15:18:58.732Z,4.10
2019-05-05T15:21:28.208Z,3.87
2019-05-05T15:23:57.960Z,4.70
2019-05-05T15:26:27.394Z,4.30
2019-05-05T15:29:01.388Z,4.67
2019-05-05T15:31:28.109Z,4.43
2019-05-05T15:33:57.586Z,4.73
2019-05-05T15:36:29.450Z,4.07
2019-05-05T15:38:58.225Z,5.30
2019-05-05T15:41:27.808Z,4.57
2019-05-05T15:43:57.413Z,4.63
2019-05-05T15:46:27.833Z,3.67
2019-05-05T15:48:58.170Z,3.90
2019-05-05T15:51:27.598Z,3.93
2019-05-05T15:53:57.056Z,4.50
2019-05-05T15:56:26.526Z,3.83
2019-05-05T15:58:56.061Z,4.13
2019-05-05T16:01:25.635Z,3.80
2019-05-05T16:03:55.129Z,4.17
2019-05-05T16:06:24.567Z,4.53
2019-05-05T16:08:56.456Z,4.13
2019-05-05T16:11:28.551Z,4.47
2019-05-05T16:13:58.042Z,4.30
2019-05-05T16:16:41.237Z,4.50
2019-05-05T16:19:28.807Z,4.00
2019-05-05T16:22:00.085Z,4.53
2019-05-05T16:24:36.489Z,4.10
2019-05-05T16:27:18.404Z,4.20
2019-05-05T16:29:36.195Z,4.30
2019-05-05T16:32:18.417Z,4.27
2019-05-05T16:34:36.823Z,4.87
2019-05-05T16:37:06.269Z,4.00
2019-05-05T16:39:36.081Z,4.13
2019-05-05T16:42:05.618Z,4.30
2019-05-05T16:44:35.063Z,3.70
2019-05-05T16:47:04.815Z,4.10
2019-05-05T16:49:35.487Z,3.63
2019-05-05T16:52:06.740Z,3.90
2019-05-05T16:54:39.426Z,3.97
2019-05-05T16:57:08.868Z,3.80
2019-05-05T16:59:38.308Z,3.60
2019-05-05T17:02:07.776Z,4.03
2019-05-05T17:04:37.244Z,4.03
2019-05-05T17:07:06.954Z,4.00
2019-05-05T17:09:36.795Z,3.93
2019-05-05T17:12:09.640Z,3.93
2019-05-05T17:14:58.787Z,3.30
2019-05-05T17:17:34.083Z,3.43
2019-05-05T17:20:16.122Z,3.60
2019-05-05T17:22:47.368Z,3.90
2019-05-05T17:25:17.244Z,3.97
2019-05-05T17:27:50.477Z,3.87
2019-05-05T17:30:19.910Z,3.47
2019-05-05T17:32:49.332Z,3.60
2019-05-05T17:35:18.869Z,3.83
2019-05-05T17:37:48.266Z,3.50
2019-05-05T17:40:19.436Z,3.70
2019-05-05T17:42:59.764Z,3.87
2019-05-05T17:45:50.840Z,3.50
2019-05-05T17:48:23.744Z,3.43
2019-05-05T17:50:54.944Z,3.47
2019-05-05T17:53:34.991Z,3.53
2019-05-05T17:56:06.140Z,3.60
2019-05-05T17:58:35.563Z,3.37
2019-05-05T18:01:05.268Z,3.90
2019-05-05T18:03:34.694Z,3.83
2019-05-05T18:06:23.603Z,3.87
2019-05-05T18:08:54.855Z,4.20
2019-05-05T18:11:35.348Z,4.40
2019-05-05T18:14:19.441Z,4.23
2019-05-05T18:16:50.428Z,4.57
2019-05-05T18:19:19.968Z,4.47
2019-05-05T18:21:49.394Z,4.87
2019-05-05T18:24:18.838Z,4.70
2019-05-05T18:26:48.243Z,4.43
2019-05-05T18:29:19.231Z,4.37
2019-05-05T18:31:48.636Z,3.70
2019-05-05T18:34:18.595Z,3.93
2019-05-05T18:36:48.040Z,4.50
2019-05-05T18:39:17.454Z,4.63
2019-05-05T18:41:54.536Z,4.40
2019-05-05T18:44:25.599Z,5.37
2019-05-05T18:47:15.624Z,5.30
2019-05-05T18:49:44.072Z,4.77
2019-05-05T18:52:13.969Z,5.17
2019-05-05T18:54:45.047Z,5.40
2019-05-05T18:57:14.674Z,5.37
2019-05-05T18:59:44.726Z,5.30
2019-05-05T19:02:18.447Z,5.07
2019-05-05T19:05:00.103Z,5.17
2019-05-05T19:07:35.346Z,5.03
2019-05-05T19:10:07.218Z,5.30
2019-05-05T19:12:36.939Z,5.40
2019-05-05T19:15:07.655Z,5.47
2019-05-05T19:17:37.134Z,6.23
2019-05-05T19:20:14.558Z,5.90
2019-05-05T19:22:43.755Z,5.80
2019-05-05T19:25:16.132Z,5.90
2019-05-05T19:27:46.452Z,6.07
2019-05-05T19:30:17.513Z,5.90
2019-05-05T19:32:46.939Z,5.97
2019-05-05T19:35:16.476Z,6.23
2019-05-05T19:37:45.874Z,5.93
2019-05-05T19:40:15.382Z,6.37
2019-05-05T19:42:46.311Z,6.43
2019-05-05T19:45:16.150Z,6.73
2019-05-05T19:47:45.626Z,6.57
2019-05-05T19:50:17.343Z,6.30
2019-05-05T19:52:46.942Z,6.80
2019-05-05T19:55:16.359Z,5.40
2019-05-05T19:57:45.933Z,6.10
2019-05-05T20:00:15.639Z,6.47
2019-05-05T20:02:45.490Z,6.33
2019-05-05T20:05:16.435Z,6.80
2019-05-05T20:07:45.873Z,6.03
2019-05-05T20:10:15.650Z,6.10
2019-05-05T20:12:47.011Z,5.87
2019-05-05T20:15:33.720Z,5.33
2019-05-05T20:18:04.681Z,5.87
2019-05-05T20:20:35.687Z,5.27
2019-05-05T20:23:05.122Z,5.80
2019-05-05T20:25:34.575Z,5.90
2019-05-05T20:28:05.530Z,5.43
2019-05-05T20:30:34.979Z,6.00
2019-05-05T20:33:13.901Z,5.87
2019-05-05T20:35:45.683Z,5.57
2019-05-05T20:38:29.091Z,5.60
2019-05-05T20:41:14.214Z,5.83
2019-05-05T20:43:44.738Z,5.47
2019-05-05T20:46:14.668Z,5.13
2019-05-05T20:48:44.829Z,6.10
2019-05-05T20:51:14.553Z,5.30
2019-05-05T20:53:44.696Z,6.03
2019-05-05T20:56:15.354Z,6.00
2019-05-05T20:58:44.826Z,5.87
2019-05-05T21:01:14.363Z,5.77
2019-05-05T21:03:43.771Z,5.17
2019-05-05T21:06:14.000Z,5.40
2019-05-05T21:08:44.135Z,5.73
2019-05-05T21:11:14.275Z,5.33
2019-05-05T21:13:45.158Z,5.17
2019-05-05T21:16:14.807Z,5.97
2019-05-05T21:18:44.184Z,5.97
2019-05-05T21:21:15.283Z,6.40
2019-05-05T21:23:46.340Z,5.60
2019-05-05T21:26:17.505Z,6.23
2019-05-05T21:28:46.916Z,6.03
2019-05-05T21:31:16.352Z,6.00
2019-05-05T21:33:45.768Z,5.57
2019-05-05T21:36:15.337Z,6.00
2019-05-05T21:38:44.738Z,5.57
2019-05-05T21:41:14.305Z,5.17
2019-05-05T21:43:44.869Z,4.80
2019-05-05T21:46:14.506Z,4.90
2019-05-05T21:48:44.890Z,4.70
2019-05-05T21:51:23.965Z,4.93
2019-05-05T21:54:11.306Z,4.73
2019-05-05T21:56:54.613Z,4.90
2019-05-05T21:59:24.113Z,5.13
2019-05-05T22:01:53.634Z,5.80
2019-05-05T22:04:23.917Z,5.10
2019-05-05T22:06:54.914Z,5.30
2019-05-05T22:09:27.006Z,5.70
2019-05-05T22:11:56.472Z,5.57
2019-05-05T22:14:25.922Z,5.63
2019-05-05T22:16:55.453Z,6.30
2019-05-05T22:19:27.377Z,6.30
2019-05-05T22:21:58.475Z,6.27
2019-05-05T22:24:27.892Z,6.30
2019-05-05T22:26:57.327Z,6.53
2019-05-05T22:29:26.721Z,6.30
2019-05-05T22:31:56.156Z,6.50
2019-05-05T22:34:25.631Z,6.83
2019-05-05T22:36:55.140Z,6.90
2019-05-05T22:39:24.576Z,6.83
2019-05-05T22:41:55.620Z,7.00
2019-05-05T22:44:25.062Z,6.33
2019-05-05T22:46:54.541Z,6.33
2019-05-05T22:49:24.321Z,6.33
2019-05-05T22:51:54.241Z,6.80
2019-05-05T22:54:24.171Z,7.13
2019-05-05T22:56:54.066Z,6.03
2019-05-05T22:59:26.121Z,5.83
2019-05-05T23:01:54.836Z,7.00
2019-05-05T23:04:29.150Z,6.70
2019-05-05T23:07:00.209Z,6.87
2019-05-05T23:09:29.711Z,7.00
2019-05-05T23:12:00.704Z,7.00
2019-05-05T23:14:34.104Z,6.97
2019-05-05T23:17:16.519Z,6.07
2019-05-05T23:20:05.295Z,5.97
2019-05-05T23:22:51.650Z,7.07
2019-05-05T23:25:34.978Z,7.43
2019-05-05T23:28:04.383Z,7.30
2019-05-05T23:30:41.464Z,6.73
2019-05-05T23:33:06.504Z,6.80
2019-05-05T23:35:36.148Z,6.73
2019-05-05T23:38:05.547Z,6.50
2019-05-05T23:40:35.224Z,6.87
2019-05-05T23:43:04.698Z,7.53
2019-05-05T23:45:34.304Z,6.80
2019-05-05T23:48:03.865Z,6.93
2019-05-05T23:50:33.815Z,7.47
2019-05-05T23:53:03.384Z,7.43
2019-05-05T23:55:34.431Z,7.50
2019-05-05T23:58:03.958Z,6.90
